sensor_id;sensor_type;location;lat;lon;timestamp;temperature;humidity
37281;DHT22;23169;41.804;12.596;2022-12-26T00:01:56;12.20;1.00
37281;DHT22;23169;41.804;12.596;2022-12-26T00:04:26;12.10;1.00
37281;DHT22;23169;41.804;12.596;2022-12-26T00:06:53;12.10;1.00
37281;DHT22;23169;41.804;12.596;2022-12-26T00:09:20;12.10;99.90
37281;DHT22;23169;41.804;12.596;2022-12-26T00:11:48;12.00;1.00
37281;DHT22;23169;41.804;12.596;2022-12-26T00:14:15;12.10;1.00
37281;DHT22;23169;41.804;12.596;2022-12-26T00:16:43;12.10;1.00
37281;DHT22;23169;41.804;12.596;2022-12-26T00:19:11;12.10;1.00
37281;DHT22;23169;41.804;12.596;2022-12-26T00:21:38;12.00;1.00
37281;DHT22;23169;41.804;12.596;2022-12-26T00:24:05;11.90;99.90
37281;DHT22;23169;41.804;12.596;2022-12-26T00:26:33;11.80;1.00
37281;DHT22;23169;41.804;12.596;2022-12-26T00:29:02;11.70;1.00
37281;DHT22;23169;41.804;12.596;2022-12-26T00:31:30;11.60;99.90
37281;DHT22;23169;41.804;12.596;2022-12-26T00:33:58;11.30;99.90
37281;DHT22;23169;41.804;12.596;2022-12-26T00:36:27;11.20;1.00
37281;DHT22;23169;41.804;12.596;2022-12-26T00:38:55;11.20;1.00
37281;DHT22;23169;41.804;12.596;2022-12-26T00:41:23;11.10;11.60
37281;DHT22;23169;41.804;12.596;2022-12-26T00:43:51;11.10;99.90
37281;DHT22;23169;41.804;12.596;2022-12-26T00:46:18;11.10;99.90
37281;DHT22;23169;41.804;12.596;2022-12-26T00:48:46;11.20;99.90
37281;DHT22;23169;41.804;12.596;2022-12-26T00:51:13;11.20;99.90
37281;DHT22;23169;41.804;12.596;2022-12-26T00:53:41;11.20;99.90
37281;DHT22;23169;41.804;12.596;2022-12-26T00:56:08;11.20;99.90
37281;DHT22;23169;41.804;12.596;2022-12-26T00:58:36;11.30;99.90
37281;DHT22;23169;41.804;12.596;2022-12-26T01:01:14;11.30;99.90
37281;DHT22;23169;41.804;12.596;2022-12-26T01:03:41;11.30;99.90
37281;DHT22;23169;41.804;12.596;2022-12-26T01:06:09;11.40;99.90
37281;DHT22;23169;41.804;12.596;2022-12-26T01:08:37;11.50;99.90
37281;DHT22;23169;41.804;12.596;2022-12-26T01:11:06;11.60;99.90
37281;DHT22;23169;41.804;12.596;2022-12-26T01:13:33;11.60;99.90
37281;DHT22;23169;41.804;12.596;2022-12-26T01:16:01;11.60;96.50
37281;DHT22;23169;41.804;12.596;2022-12-26T01:18:30;11.50;44.40
37281;DHT22;23169;41.804;12.596;2022-12-26T01:20:58;11.50;90.00
37281;DHT22;23169;41.804;12.596;2022-12-26T01:23:26;11.50;64.50
37281;DHT22;23169;41.804;12.596;2022-12-26T01:25:55;11.40;1.00
37281;DHT22;23169;41.804;12.596;2022-12-26T01:28:22;11.20;1.00
37281;DHT22;23169;41.804;12.596;2022-12-26T01:30:50;11.10;20.50
37281;DHT22;23169;41.804;12.596;2022-12-26T01:33:17;11.00;99.90
37281;DHT22;23169;41.804;12.596;2022-12-26T01:35:49;11.10;99.90
37281;DHT22;23169;41.804;12.596;2022-12-26T01:38:17;11.20;99.90
37281;DHT22;23169;41.804;12.596;2022-12-26T01:40:44;11.40;64.10
37281;DHT22;23169;41.804;12.596;2022-12-26T01:43:12;11.60;93.50
37281;DHT22;23169;41.804;12.596;2022-12-26T01:45:41;11.80;40.40
37281;DHT22;23169;41.804;12.596;2022-12-26T01:48:17;11.80;99.90
37281;DHT22;23169;41.804;12.596;2022-12-26T01:50:48;11.60;1.00
37281;DHT22;23169;41.804;12.596;2022-12-26T01:53:27;11.50;1.00
37281;DHT22;23169;41.804;12.596;2022-12-26T01:55:57;11.40;99.90
37281;DHT22;23169;41.804;12.596;2022-12-26T01:58:32;11.30;99.90
37281;DHT22;23169;41.804;12.596;2022-12-26T02:01:01;11.30;80.70
37281;DHT22;23169;41.804;12.596;2022-12-26T02:03:30;11.20;99.90
37281;DHT22;23169;41.804;12.596;2022-12-26T02:06:16;11.20;99.90
37281;DHT22;23169;41.804;12.596;2022-12-26T02:08:46;11.30;99.90
37281;DHT22;23169;41.804;12.596;2022-12-26T02:14:00;11.30;82.80
37281;DHT22;23169;41.804;12.596;2022-12-26T02:16:28;11.30;1.00
37281;DHT22;23169;41.804;12.596;2022-12-26T02:18:56;11.30;16.30
37281;DHT22;23169;41.804;12.596;2022-12-26T02:21:38;11.30;99.90
37281;DHT22;23169;41.804;12.596;2022-12-26T02:24:20;11.30;1.00
37281;DHT22;23169;41.804;12.596;2022-12-26T02:27:01;11.50;99.90
37281;DHT22;23169;41.804;12.596;2022-12-26T02:29:40;9.90;1.00
37281;DHT22;23169;41.804;12.596;2022-12-26T02:40:04;11.30;33.60
37281;DHT22;23169;41.804;12.596;2022-12-26T02:45:08;11.40;1.00
37281;DHT22;23169;41.804;12.596;2022-12-26T02:47:58;11.30;1.00
37281;DHT22;23169;41.804;12.596;2022-12-26T02:50:43;11.30;1.00
37281;DHT22;23169;41.804;12.596;2022-12-26T02:56:35;11.10;1.00
37281;DHT22;23169;41.804;12.596;2022-12-26T02:59:24;11.10;47.90
37281;DHT22;23169;41.804;12.596;2022-12-26T03:02:18;11.20;99.90
37281;DHT22;23169;41.804;12.596;2022-12-26T03:05:15;11.10;1.00
37281;DHT22;23169;41.804;12.596;2022-12-26T03:08:02;11.00;92.50
37281;DHT22;23169;41.804;12.596;2022-12-26T03:10:49;11.00;99.90
37281;DHT22;23169;41.804;12.596;2022-12-26T03:13:36;11.10;99.90
37281;DHT22;23169;41.804;12.596;2022-12-26T03:16:08;11.00;1.00
37281;DHT22;23169;41.804;12.596;2022-12-26T03:18:56;10.90;1.00
37281;DHT22;23169;41.804;12.596;2022-12-26T03:21:25;10.80;1.00
37281;DHT22;23169;41.804;12.596;2022-12-26T03:23:53;10.70;11.90
37281;DHT22;23169;41.804;12.596;2022-12-26T03:26:27;10.80;1.00
37281;DHT22;23169;41.804;12.596;2022-12-26T03:29:06;10.80;25.40
37281;DHT22;23169;41.804;12.596;2022-12-26T03:31:52;10.80;43.00
37281;DHT22;23169;41.804;12.596;2022-12-26T03:34:20;10.90;64.20
37281;DHT22;23169;41.804;12.596;2022-12-26T03:39:37;11.00;1.00
37281;DHT22;23169;41.804;12.596;2022-12-26T03:50:48;11.00;1.00
37281;DHT22;23169;41.804;12.596;2022-12-26T03:53:48;10.90;3.80
37281;DHT22;23169;41.804;12.596;2022-12-26T03:56:50;10.80;99.90
37281;DHT22;23169;41.804;12.596;2022-12-26T03:59:40;10.90;99.90
37281;DHT22;23169;41.804;12.596;2022-12-26T04:02:28;11.00;99.90
37281;DHT22;23169;41.804;12.596;2022-12-26T04:05:15;11.10;99.90
37281;DHT22;23169;41.804;12.596;2022-12-26T04:08:03;11.10;99.90
37281;DHT22;23169;41.804;12.596;2022-12-26T04:10:54;11.20;99.90
37281;DHT22;23169;41.804;12.596;2022-12-26T04:13:58;11.20;99.90
37281;DHT22;23169;41.804;12.596;2022-12-26T04:16:48;11.20;99.90
37281;DHT22;23169;41.804;12.596;2022-12-26T04:19:40;11.20;99.90
37281;DHT22;23169;41.804;12.596;2022-12-26T04:22:11;11.20;99.90
37281;DHT22;23169;41.804;12.596;2022-12-26T04:27:53;11.30;99.90
37281;DHT22;23169;41.804;12.596;2022-12-26T04:30:39;11.30;99.90
37281;DHT22;23169;41.804;12.596;2022-12-26T04:33:27;11.30;1.00
37281;DHT22;23169;41.804;12.596;2022-12-26T04:36:17;11.40;1.00
37281;DHT22;23169;41.804;12.596;2022-12-26T04:39:05;11.40;1.00
37281;DHT22;23169;41.804;12.596;2022-12-26T04:41:55;11.40;99.90
37281;DHT22;23169;41.804;12.596;2022-12-26T04:44:41;11.40;99.90
37281;DHT22;23169;41.804;12.596;2022-12-26T04:47:09;11.40;99.90
37281;DHT22;23169;41.804;12.596;2022-12-26T04:49:43;11.30;99.90
37281;DHT22;23169;41.804;12.596;2022-12-26T04:52:30;11.30;99.90
37281;DHT22;23169;41.804;12.596;2022-12-26T04:55:16;11.20;99.90
37281;DHT22;23169;41.804;12.596;2022-12-26T04:57:43;11.20;99.90
37281;DHT22;23169;41.804;12.596;2022-12-26T05:00:11;11.20;99.90
37281;DHT22;23169;41.804;12.596;2022-12-26T05:02:38;11.20;99.90
37281;DHT22;23169;41.804;12.596;2022-12-26T05:05:23;11.20;1.00
37281;DHT22;23169;41.804;12.596;2022-12-26T05:08:19;11.30;1.00
37281;DHT22;23169;41.804;12.596;2022-12-26T05:11:07;11.30;99.90
37281;DHT22;23169;41.804;12.596;2022-12-26T05:13:34;11.30;99.90
37281;DHT22;23169;41.804;12.596;2022-12-26T05:16:01;11.30;99.90
37281;DHT22;23169;41.804;12.596;2022-12-26T05:18:47;11.40;99.90
37281;DHT22;23169;41.804;12.596;2022-12-26T05:21:32;11.40;99.90
37281;DHT22;23169;41.804;12.596;2022-12-26T05:24:18;11.30;99.90
37281;DHT22;23169;41.804;12.596;2022-12-26T05:27:04;11.40;99.90
37281;DHT22;23169;41.804;12.596;2022-12-26T05:29:49;11.40;99.90
37281;DHT22;23169;41.804;12.596;2022-12-26T05:32:17;11.40;99.90
37281;DHT22;23169;41.804;12.596;2022-12-26T05:35:02;11.40;64.10
37281;DHT22;23169;41.804;12.596;2022-12-26T05:37:29;11.30;99.90
37281;DHT22;23169;41.804;12.596;2022-12-26T05:39:57;11.30;99.90
37281;DHT22;23169;41.804;12.596;2022-12-26T05:42:24;11.50;99.90
37281;DHT22;23169;41.804;12.596;2022-12-26T05:44:52;11.60;99.90
37281;DHT22;23169;41.804;12.596;2022-12-26T05:47:19;11.70;99.90
37281;DHT22;23169;41.804;12.596;2022-12-26T05:49:47;11.80;99.90
37281;DHT22;23169;41.804;12.596;2022-12-26T05:52:15;12.00;99.90
37281;DHT22;23169;41.804;12.596;2022-12-26T05:54:42;12.00;99.90
37281;DHT22;23169;41.804;12.596;2022-12-26T05:57:09;12.10;99.90
37281;DHT22;23169;41.804;12.596;2022-12-26T05:59:37;12.10;99.90
37281;DHT22;23169;41.804;12.596;2022-12-26T06:02:04;12.10;99.90
37281;DHT22;23169;41.804;12.596;2022-12-26T06:04:32;12.20;55.50
37281;DHT22;23169;41.804;12.596;2022-12-26T06:07:01;12.30;1.00
37281;DHT22;23169;41.804;12.596;2022-12-26T06:09:28;12.40;1.00
37281;DHT22;23169;41.804;12.596;2022-12-26T06:11:55;12.40;1.00
37281;DHT22;23169;41.804;12.596;2022-12-26T06:14:22;12.40;1.00
37281;DHT22;23169;41.804;12.596;2022-12-26T06:16:50;12.40;99.90
37281;DHT22;23169;41.804;12.596;2022-12-26T06:19:17;12.40;99.90
37281;DHT22;23169;41.804;12.596;2022-12-26T06:21:44;14.90;1.00
37281;DHT22;23169;41.804;12.596;2022-12-26T06:24:12;12.40;1.00
37281;DHT22;23169;41.804;12.596;2022-12-26T06:26:39;12.30;1.00
37281;DHT22;23169;41.804;12.596;2022-12-26T06:29:07;12.20;1.00
37281;DHT22;23169;41.804;12.596;2022-12-26T06:31:35;12.20;1.00
37281;DHT22;23169;41.804;12.596;2022-12-26T06:34:02;12.30;19.30
37281;DHT22;23169;41.804;12.596;2022-12-26T06:36:30;12.40;1.00
37281;DHT22;23169;41.804;12.596;2022-12-26T06:38:57;12.50;1.00
37281;DHT22;23169;41.804;12.596;2022-12-26T06:41:24;12.60;1.00
37281;DHT22;23169;41.804;12.596;2022-12-26T06:43:52;12.70;1.00
37281;DHT22;23169;41.804;12.596;2022-12-26T06:46:20;12.70;1.00
37281;DHT22;23169;41.804;12.596;2022-12-26T06:48:47;12.70;99.90
37281;DHT22;23169;41.804;12.596;2022-12-26T06:51:16;12.70;1.00
37281;DHT22;23169;41.804;12.596;2022-12-26T06:53:43;12.80;1.00
37281;DHT22;23169;41.804;12.596;2022-12-26T06:56:12;12.80;1.00
37281;DHT22;23169;41.804;12.596;2022-12-26T06:58:40;12.80;1.00
37281;DHT22;23169;41.804;12.596;2022-12-26T07:01:08;12.80;99.90
37281;DHT22;23169;41.804;12.596;2022-12-26T07:03:36;12.70;1.00
37281;DHT22;23169;41.804;12.596;2022-12-26T07:06:09;12.70;1.00
37281;DHT22;23169;41.804;12.596;2022-12-26T07:08:37;12.70;99.90
37281;DHT22;23169;41.804;12.596;2022-12-26T07:11:14;12.70;99.90
37281;DHT22;23169;41.804;12.596;2022-12-26T07:13:41;12.70;1.00
37281;DHT22;23169;41.804;12.596;2022-12-26T07:16:09;12.70;1.00
37281;DHT22;23169;41.804;12.596;2022-12-26T07:18:37;12.70;1.00
37281;DHT22;23169;41.804;12.596;2022-12-26T07:21:05;12.60;1.00
37281;DHT22;23169;41.804;12.596;2022-12-26T07:23:32;12.60;1.00
37281;DHT22;23169;41.804;12.596;2022-12-26T07:26:00;12.60;1.00
37281;DHT22;23169;41.804;12.596;2022-12-26T07:28:28;12.60;1.00
37281;DHT22;23169;41.804;12.596;2022-12-26T07:30:55;12.60;1.00
37281;DHT22;23169;41.804;12.596;2022-12-26T07:33:25;12.60;1.00
37281;DHT22;23169;41.804;12.596;2022-12-26T07:35:52;12.70;1.00
37281;DHT22;23169;41.804;12.596;2022-12-26T07:38:20;12.70;1.00
37281;DHT22;23169;41.804;12.596;2022-12-26T07:40:47;12.80;1.00
37281;DHT22;23169;41.804;12.596;2022-12-26T07:43:14;12.80;1.00
37281;DHT22;23169;41.804;12.596;2022-12-26T07:45:42;12.90;1.00
37281;DHT22;23169;41.804;12.596;2022-12-26T07:48:10;13.00;1.00
37281;DHT22;23169;41.804;12.596;2022-12-26T07:50:37;13.00;1.00
37281;DHT22;23169;41.804;12.596;2022-12-26T07:53:04;13.10;1.00
37281;DHT22;23169;41.804;12.596;2022-12-26T07:55:31;13.10;1.00
37281;DHT22;23169;41.804;12.596;2022-12-26T07:57:59;13.20;1.00
37281;DHT22;23169;41.804;12.596;2022-12-26T08:00:26;13.30;99.90
37281;DHT22;23169;41.804;12.596;2022-12-26T08:02:53;13.30;99.90
37281;DHT22;23169;41.804;12.596;2022-12-26T08:05:20;13.40;99.90
37281;DHT22;23169;41.804;12.596;2022-12-26T08:07:48;13.50;99.90
37281;DHT22;23169;41.804;12.596;2022-12-26T08:10:15;13.60;99.90
37281;DHT22;23169;41.804;12.596;2022-12-26T08:12:42;13.60;99.90
37281;DHT22;23169;41.804;12.596;2022-12-26T08:15:10;13.70;99.90
37281;DHT22;23169;41.804;12.596;2022-12-26T08:17:39;13.80;99.90
37281;DHT22;23169;41.804;12.596;2022-12-26T08:20:06;13.80;99.90
37281;DHT22;23169;41.804;12.596;2022-12-26T08:22:33;13.90;99.90
37281;DHT22;23169;41.804;12.596;2022-12-26T08:25:01;14.00;99.90
37281;DHT22;23169;41.804;12.596;2022-12-26T08:27:28;14.10;99.90
37281;DHT22;23169;41.804;12.596;2022-12-26T08:29:55;14.10;99.90
37281;DHT22;23169;41.804;12.596;2022-12-26T08:32:23;14.10;99.90
37281;DHT22;23169;41.804;12.596;2022-12-26T08:34:50;14.20;99.90
37281;DHT22;23169;41.804;12.596;2022-12-26T08:37:17;14.20;99.90
37281;DHT22;23169;41.804;12.596;2022-12-26T08:39:44;14.30;99.90
37281;DHT22;23169;41.804;12.596;2022-12-26T08:42:12;14.30;99.90
37281;DHT22;23169;41.804;12.596;2022-12-26T08:44:39;14.30;99.90
37281;DHT22;23169;41.804;12.596;2022-12-26T08:47:06;14.40;99.90
37281;DHT22;23169;41.804;12.596;2022-12-26T08:49:34;14.40;99.90
37281;DHT22;23169;41.804;12.596;2022-12-26T08:52:01;14.50;99.90
37281;DHT22;23169;41.804;12.596;2022-12-26T08:54:28;14.50;99.90
37281;DHT22;23169;41.804;12.596;2022-12-26T08:56:55;14.50;99.90
37281;DHT22;23169;41.804;12.596;2022-12-26T08:59:23;14.60;99.90
37281;DHT22;23169;41.804;12.596;2022-12-26T09:01:50;14.70;99.90
37281;DHT22;23169;41.804;12.596;2022-12-26T09:04:17;14.80;99.90
37281;DHT22;23169;41.804;12.596;2022-12-26T09:06:44;15.00;99.90
37281;DHT22;23169;41.804;12.596;2022-12-26T09:09:12;15.00;99.90
37281;DHT22;23169;41.804;12.596;2022-12-26T09:11:40;15.20;99.90
37281;DHT22;23169;41.804;12.596;2022-12-26T09:14:07;15.30;96.20
37281;DHT22;23169;41.804;12.596;2022-12-26T09:16:37;15.30;72.20
37281;DHT22;23169;41.804;12.596;2022-12-26T09:19:04;15.30;59.10
37281;DHT22;23169;41.804;12.596;2022-12-26T09:21:32;15.30;51.10
37281;DHT22;23169;41.804;12.596;2022-12-26T09:24:00;15.30;82.50
37281;DHT22;23169;41.804;12.596;2022-12-26T09:26:30;15.30;67.00
37281;DHT22;23169;41.804;12.596;2022-12-26T09:28:58;15.40;65.20
37281;DHT22;23169;41.804;12.596;2022-12-26T09:31:27;15.40;59.40
37281;DHT22;23169;41.804;12.596;2022-12-26T09:33:54;15.50;85.40
37281;DHT22;23169;41.804;12.596;2022-12-26T09:36:26;15.60;47.90
37281;DHT22;23169;41.804;12.596;2022-12-26T09:38:54;15.70;36.70
37281;DHT22;23169;41.804;12.596;2022-12-26T09:47:06;16.40;1.00
37281;DHT22;23169;41.804;12.596;2022-12-26T09:49:36;16.50;1.00
37281;DHT22;23169;41.804;12.596;2022-12-26T09:52:07;16.70;1.00
37281;DHT22;23169;41.804;12.596;2022-12-26T09:54:41;16.70;1.00
37281;DHT22;23169;41.804;12.596;2022-12-26T09:57:17;16.80;1.00
37281;DHT22;23169;41.804;12.596;2022-12-26T09:59:47;16.90;1.00
37281;DHT22;23169;41.804;12.596;2022-12-26T10:02:18;17.00;1.00
37281;DHT22;23169;41.804;12.596;2022-12-26T10:04:46;16.80;1.00
37281;DHT22;23169;41.804;12.596;2022-12-26T10:14:44;16.80;99.90
37281;DHT22;23169;41.804;12.596;2022-12-26T10:17:28;16.80;99.90
37281;DHT22;23169;41.804;12.596;2022-12-26T10:25:27;16.80;99.90
37281;DHT22;23169;41.804;12.596;2022-12-26T10:27:55;16.90;99.90
37281;DHT22;23169;41.804;12.596;2022-12-26T10:30:25;17.00;99.90
37281;DHT22;23169;41.804;12.596;2022-12-26T10:32:54;17.20;99.90
37281;DHT22;23169;41.804;12.596;2022-12-26T10:35:30;17.10;99.90
37281;DHT22;23169;41.804;12.596;2022-12-26T10:38:03;17.10;99.90
37281;DHT22;23169;41.804;12.596;2022-12-26T10:40:33;17.30;99.90
37281;DHT22;23169;41.804;12.596;2022-12-26T10:45:44;16.90;99.90
37281;DHT22;23169;41.804;12.596;2022-12-26T10:48:14;17.00;99.90
37281;DHT22;23169;41.804;12.596;2022-12-26T10:50:45;17.10;99.90
37281;DHT22;23169;41.804;12.596;2022-12-26T10:53:14;17.20;99.90
37281;DHT22;23169;41.804;12.596;2022-12-26T10:55:42;17.40;99.90
37281;DHT22;23169;41.804;12.596;2022-12-26T11:00:38;17.40;99.90
37281;DHT22;23169;41.804;12.596;2022-12-26T11:03:16;17.40;99.90
37281;DHT22;23169;41.804;12.596;2022-12-26T11:05:48;17.30;99.90
37281;DHT22;23169;41.804;12.596;2022-12-26T11:13:30;17.20;99.90
37281;DHT22;23169;41.804;12.596;2022-12-26T11:15:58;17.30;99.90
37281;DHT22;23169;41.804;12.596;2022-12-26T11:23:39;17.20;99.90
37281;DHT22;23169;41.804;12.596;2022-12-26T11:26:17;17.10;99.90
37281;DHT22;23169;41.804;12.596;2022-12-26T11:28:45;17.00;99.90
37281;DHT22;23169;41.804;12.596;2022-12-26T11:31:20;17.10;99.90
37281;DHT22;23169;41.804;12.596;2022-12-26T11:33:50;17.20;99.90
37281;DHT22;23169;41.804;12.596;2022-12-26T11:36:21;17.10;99.90
37281;DHT22;23169;41.804;12.596;2022-12-26T11:46:37;17.10;99.90
37281;DHT22;23169;41.804;12.596;2022-12-26T11:49:06;17.40;99.90
37281;DHT22;23169;41.804;12.596;2022-12-26T11:51:41;17.60;99.90
37281;DHT22;23169;41.804;12.596;2022-12-26T11:56:45;17.70;99.90
37281;DHT22;23169;41.804;12.596;2022-12-26T11:59:20;17.90;99.90
37281;DHT22;23169;41.804;12.596;2022-12-26T12:01:49;18.00;99.90
37281;DHT22;23169;41.804;12.596;2022-12-26T12:04:36;17.70;99.90
37281;DHT22;23169;41.804;12.596;2022-12-26T12:10:02;17.10;99.90
37281;DHT22;23169;41.804;12.596;2022-12-26T12:12:36;17.00;99.90
37281;DHT22;23169;41.804;12.596;2022-12-26T12:31:23;17.30;99.90
37281;DHT22;23169;41.804;12.596;2022-12-26T12:39:15;17.00;99.90
37281;DHT22;23169;41.804;12.596;2022-12-26T12:52:59;18.20;99.90
37281;DHT22;23169;41.804;12.596;2022-12-26T12:55:35;18.00;99.90
37281;DHT22;23169;41.804;12.596;2022-12-26T13:00:42;17.90;99.90
37281;DHT22;23169;41.804;12.596;2022-12-26T13:11:12;17.90;99.90
37281;DHT22;23169;41.804;12.596;2022-12-26T13:13:42;18.00;99.90
37281;DHT22;23169;41.804;12.596;2022-12-26T13:16:14;18.00;99.90
37281;DHT22;23169;41.804;12.596;2022-12-26T13:18:48;18.10;99.90
37281;DHT22;23169;41.804;12.596;2022-12-26T13:21:16;18.30;99.90
37281;DHT22;23169;41.804;12.596;2022-12-26T13:23:46;18.10;99.90
37281;DHT22;23169;41.804;12.596;2022-12-26T13:26:36;18.80;99.90
37281;DHT22;23169;41.804;12.596;2022-12-26T13:31:38;19.60;99.90
37281;DHT22;23169;41.804;12.596;2022-12-26T13:34:07;19.30;99.90
37281;DHT22;23169;41.804;12.596;2022-12-26T13:41:30;18.30;99.90
37281;DHT22;23169;41.804;12.596;2022-12-26T13:49:33;18.90;99.90
37281;DHT22;23169;41.804;12.596;2022-12-26T13:57:22;18.90;99.90
37281;DHT22;23169;41.804;12.596;2022-12-26T14:05:22;19.00;99.90
37281;DHT22;23169;41.804;12.596;2022-12-26T14:10:26;19.20;99.90
37281;DHT22;23169;41.804;12.596;2022-12-26T14:13:25;19.00;99.90
37281;DHT22;23169;41.804;12.596;2022-12-26T14:15:59;18.60;99.90
37281;DHT22;23169;41.804;12.596;2022-12-26T14:26:20;18.80;99.90
37281;DHT22;23169;41.804;12.596;2022-12-26T14:31:25;19.70;99.90
37281;DHT22;23169;41.804;12.596;2022-12-26T14:36:44;20.70;99.90
37281;DHT22;23169;41.804;12.596;2022-12-26T14:44:52;22.10;99.90
37281;DHT22;23169;41.804;12.596;2022-12-26T14:47:38;22.50;99.90
37281;DHT22;23169;41.804;12.596;2022-12-26T14:52:52;22.90;99.90
37281;DHT22;23169;41.804;12.596;2022-12-26T14:55:45;22.70;99.90
37281;DHT22;23169;41.804;12.596;2022-12-26T15:00:50;22.40;99.90
37281;DHT22;23169;41.804;12.596;2022-12-26T15:32:14;17.80;99.90
37281;DHT22;23169;41.804;12.596;2022-12-26T15:34:48;17.60;99.90
37281;DHT22;23169;41.804;12.596;2022-12-26T15:45:32;16.80;99.90
37281;DHT22;23169;41.804;12.596;2022-12-26T15:48:13;16.60;99.90
37281;DHT22;23169;41.804;12.596;2022-12-26T16:01:32;15.90;99.90
37281;DHT22;23169;41.804;12.596;2022-12-26T16:03:59;15.80;99.90
37281;DHT22;23169;41.804;12.596;2022-12-26T16:14:23;15.40;1.00
37281;DHT22;23169;41.804;12.596;2022-12-26T16:16:50;15.30;1.00
37281;DHT22;23169;41.804;12.596;2022-12-26T16:19:22;15.30;1.00
37281;DHT22;23169;41.804;12.596;2022-12-26T16:21:58;15.30;1.00
37281;DHT22;23169;41.804;12.596;2022-12-26T16:24:44;15.20;1.00
37281;DHT22;23169;41.804;12.596;2022-12-26T16:27:14;15.10;2.30
37281;DHT22;23169;41.804;12.596;2022-12-26T16:29:44;15.10;9.70
37281;DHT22;23169;41.804;12.596;2022-12-26T16:32:13;15.10;14.10
37281;DHT22;23169;41.804;12.596;2022-12-26T16:34:41;15.10;16.90
37281;DHT22;23169;41.804;12.596;2022-12-26T16:37:11;15.10;13.40
37281;DHT22;23169;41.804;12.596;2022-12-26T16:39:41;15.20;16.60
37281;DHT22;23169;41.804;12.596;2022-12-26T16:42:15;15.20;1.00
37281;DHT22;23169;41.804;12.596;2022-12-26T16:44:54;15.20;1.00
37281;DHT22;23169;41.804;12.596;2022-12-26T16:47:21;15.10;1.00
37281;DHT22;23169;41.804;12.596;2022-12-26T16:49:50;15.10;1.00
37281;DHT22;23169;41.804;12.596;2022-12-26T16:54:56;15.10;1.00
37281;DHT22;23169;41.804;12.596;2022-12-26T16:57:24;15.00;1.00
37281;DHT22;23169;41.804;12.596;2022-12-26T16:59:54;15.00;1.00
37281;DHT22;23169;41.804;12.596;2022-12-26T17:02:28;14.90;1.00
37281;DHT22;23169;41.804;12.596;2022-12-26T17:05:06;14.90;1.00
37281;DHT22;23169;41.804;12.596;2022-12-26T17:07:35;14.90;1.00
37281;DHT22;23169;41.804;12.596;2022-12-26T17:10:04;14.90;1.00
37281;DHT22;23169;41.804;12.596;2022-12-26T17:12:36;14.90;1.00
37281;DHT22;23169;41.804;12.596;2022-12-26T17:15:04;14.80;1.00
37281;DHT22;23169;41.804;12.596;2022-12-26T17:17:34;14.80;1.00
37281;DHT22;23169;41.804;12.596;2022-12-26T17:20:27;15.30;1.00
37281;DHT22;23169;41.804;12.596;2022-12-26T17:22:52;14.70;1.00
37281;DHT22;23169;41.804;12.596;2022-12-26T17:25:21;14.60;1.00
37281;DHT22;23169;41.804;12.596;2022-12-26T17:35:35;14.50;1.00
37281;DHT22;23169;41.804;12.596;2022-12-26T17:38:03;14.40;1.00
37281;DHT22;23169;41.804;12.596;2022-12-26T17:40:33;14.30;1.00
37281;DHT22;23169;41.804;12.596;2022-12-26T17:45:32;14.30;1.00
37281;DHT22;23169;41.804;12.596;2022-12-26T17:48:00;14.20;1.00
37281;DHT22;23169;41.804;12.596;2022-12-26T17:50:29;14.20;1.00
37281;DHT22;23169;41.804;12.596;2022-12-26T17:53:06;14.20;1.00
37281;DHT22;23169;41.804;12.596;2022-12-26T17:55:34;14.10;1.00
37281;DHT22;23169;41.804;12.596;2022-12-26T17:58:01;14.10;1.00
37281;DHT22;23169;41.804;12.596;2022-12-26T18:00:29;14.00;1.00
37281;DHT22;23169;41.804;12.596;2022-12-26T18:02:58;14.00;1.00
37281;DHT22;23169;41.804;12.596;2022-12-26T18:05:26;13.90;1.00
37281;DHT22;23169;41.804;12.596;2022-12-26T18:07:53;13.80;1.00
37281;DHT22;23169;41.804;12.596;2022-12-26T18:10:24;13.80;1.00
37281;DHT22;23169;41.804;12.596;2022-12-26T18:12:52;13.70;1.00
37281;DHT22;23169;41.804;12.596;2022-12-26T18:15:19;13.70;1.00
37281;DHT22;23169;41.804;12.596;2022-12-26T18:17:48;13.70;1.00
37281;DHT22;23169;41.804;12.596;2022-12-26T18:20:17;13.70;1.00
37281;DHT22;23169;41.804;12.596;2022-12-26T18:22:44;13.60;1.00
37281;DHT22;23169;41.804;12.596;2022-12-26T18:25:14;13.60;1.00
37281;DHT22;23169;41.804;12.596;2022-12-26T18:27:41;13.70;1.00
37281;DHT22;23169;41.804;12.596;2022-12-26T18:30:30;13.70;1.00
37281;DHT22;23169;41.804;12.596;2022-12-26T18:32:57;13.70;1.00
37281;DHT22;23169;41.804;12.596;2022-12-26T18:35:24;13.70;1.00
37281;DHT22;23169;41.804;12.596;2022-12-26T18:37:51;13.60;1.00
37281;DHT22;23169;41.804;12.596;2022-12-26T18:42:52;13.60;1.00
37281;DHT22;23169;41.804;12.596;2022-12-26T18:45:19;13.60;1.00
37281;DHT22;23169;41.804;12.596;2022-12-26T18:47:47;13.70;1.00
37281;DHT22;23169;41.804;12.596;2022-12-26T18:50:15;13.70;1.00
37281;DHT22;23169;41.804;12.596;2022-12-26T18:52:43;13.70;1.00
37281;DHT22;23169;41.804;12.596;2022-12-26T18:55:10;13.70;1.00
37281;DHT22;23169;41.804;12.596;2022-12-26T18:57:38;13.60;1.00
37281;DHT22;23169;41.804;12.596;2022-12-26T19:00:06;13.50;1.00
37281;DHT22;23169;41.804;12.596;2022-12-26T19:02:35;13.50;1.00
37281;DHT22;23169;41.804;12.596;2022-12-26T19:05:02;13.40;1.00
37281;DHT22;23169;41.804;12.596;2022-12-26T19:07:29;13.40;1.00
37281;DHT22;23169;41.804;12.596;2022-12-26T19:09:57;13.40;1.00
37281;DHT22;23169;41.804;12.596;2022-12-26T19:12:26;13.40;1.00
37281;DHT22;23169;41.804;12.596;2022-12-26T19:14:53;13.30;1.00
37281;DHT22;23169;41.804;12.596;2022-12-26T19:17:20;13.20;1.00
37281;DHT22;23169;41.804;12.596;2022-12-26T19:19:48;11.90;1.40
37281;DHT22;23169;41.804;12.596;2022-12-26T19:22:15;13.20;13.30
37281;DHT22;23169;41.804;12.596;2022-12-26T19:24:43;13.10;32.50
37281;DHT22;23169;41.804;12.596;2022-12-26T19:27:10;13.10;41.20
37281;DHT22;23169;41.804;12.596;2022-12-26T19:29:37;13.00;72.40
37281;DHT22;23169;41.804;12.596;2022-12-26T19:32:05;13.00;93.00
37281;DHT22;23169;41.804;12.596;2022-12-26T19:34:32;12.90;99.90
37281;DHT22;23169;41.804;12.596;2022-12-26T19:36:59;12.90;99.90
37281;DHT22;23169;41.804;12.596;2022-12-26T19:39:27;12.80;99.90
37281;DHT22;23169;41.804;12.596;2022-12-26T19:41:55;12.80;99.90
37281;DHT22;23169;41.804;12.596;2022-12-26T19:44:22;12.70;99.90
37281;DHT22;23169;41.804;12.596;2022-12-26T19:46:50;12.70;99.90
37281;DHT22;23169;41.804;12.596;2022-12-26T19:49:17;12.60;99.90
37281;DHT22;23169;41.804;12.596;2022-12-26T19:51:45;12.60;99.90
37281;DHT22;23169;41.804;12.596;2022-12-26T19:54:12;12.50;99.90